createdAt,value
2023-06-30T00:00:14.493Z,18.60
2023-06-30T00:02:44.208Z,18.60
2023-06-30T00:05:11.472Z,18.60
2023-06-30T00:07:38.882Z,18.50
2023-06-30T00:10:07.666Z,18.50
2023-06-30T00:12:35.128Z,18.50
2023-06-30T00:15:02.646Z,18.40
2023-06-30T00:17:30.007Z,18.30
2023-06-30T00:20:00.626Z,18.30
2023-06-30T00:22:28.310Z,18.20
2023-06-30T00:24:56.402Z,18.20
2023-06-30T00:27:24.349Z,18.10
2023-06-30T00:29:51.650Z,18.10
2023-06-30T00:32:20.789Z,18.00
2023-06-30T00:34:51.015Z,18.00
2023-06-30T00:37:18.586Z,18.00
2023-06-30T00:39:47.224Z,17.90
2023-06-30T00:42:14.517Z,17.90
2023-06-30T00:44:41.798Z,17.80
2023-06-30T00:47:09.100Z,17.70
2023-06-30T00:49:36.281Z,17.70
2023-06-30T00:52:03.585Z,17.50
2023-06-30T00:54:30.869Z,17.50
2023-06-30T00:57:01.120Z,17.40
2023-06-30T00:59:29.833Z,17.30
2023-06-30T01:02:32.540Z,17.20
2023-06-30T01:05:07.943Z,17.10
2023-06-30T01:08:14.183Z,17.00
2023-06-30T01:10:41.490Z,17.00
2023-06-30T01:13:08.824Z,17.00
2023-06-30T01:15:35.943Z,16.90
2023-06-30T01:18:03.182Z,16.90
2023-06-30T01:20:31.736Z,16.80
2023-06-30T01:23:05.610Z,16.70
2023-06-30T01:25:32.995Z,16.70
2023-06-30T01:28:00.542Z,16.60
2023-06-30T01:30:31.167Z,16.60
2023-06-30T01:32:59.884Z,16.60
2023-06-30T01:35:28.187Z,16.50
2023-06-30T01:37:55.655Z,16.50
2023-06-30T01:40:24.231Z,16.50
2023-06-30T01:42:53.906Z,16.40
2023-06-30T01:45:22.138Z,16.30
2023-06-30T01:47:50.178Z,16.30
2023-06-30T01:50:19.347Z,16.20
2023-06-30T01:52:47.475Z,16.20
2023-06-30T01:55:14.907Z,16.20
2023-06-30T01:57:42.080Z,16.10
2023-06-30T02:00:09.807Z,16.10
2023-06-30T02:02:42.959Z,16.10
2023-06-30T02:05:13.637Z,16.00
2023-06-30T02:07:40.954Z,16.00
2023-06-30T02:10:09.096Z,15.90
2023-06-30T02:12:36.756Z,15.90
2023-06-30T02:15:05.588Z,15.90
2023-06-30T02:17:34.205Z,15.90
2023-06-30T02:20:01.957Z,15.80
2023-06-30T02:22:29.502Z,15.80
2023-06-30T02:24:57.710Z,15.80
2023-06-30T02:27:25.535Z,15.70
2023-06-30T02:29:52.929Z,15.70
2023-06-30T02:32:20.658Z,15.60
2023-06-30T02:34:50.635Z,15.60
2023-06-30T02:37:21.060Z,15.50
2023-06-30T02:39:48.921Z,15.50
2023-06-30T02:42:18.787Z,15.50
2023-06-30T02:44:46.797Z,15.40
2023-06-30T02:47:14.132Z,15.40
2023-06-30T02:49:42.479Z,15.30
2023-06-30T02:52:10.538Z,15.20
2023-06-30T02:54:37.723Z,15.20
2023-06-30T02:57:05.421Z,15.20
2023-06-30T02:59:33.146Z,15.10
2023-06-30T03:02:01.159Z,15.00
2023-06-30T03:04:28.365Z,15.00
2023-06-30T03:06:56.319Z,14.90
2023-06-30T03:09:23.797Z,14.90
2023-06-30T03:11:51.682Z,14.90
2023-06-30T03:14:21.802Z,14.90
2023-06-30T03:16:50.251Z,14.80
2023-06-30T03:19:20.630Z,14.70
2023-06-30T03:21:51.848Z,14.70
2023-06-30T03:24:19.346Z,14.70
2023-06-30T03:26:46.849Z,14.70
2023-06-30T03:29:21.058Z,14.60
2023-06-30T03:31:51.508Z,14.60
2023-06-30T03:34:18.905Z,14.50
2023-06-30T03:36:48.067Z,14.50
2023-06-30T03:39:17.061Z,14.50
2023-06-30T03:41:50.664Z,14.50
2023-06-30T03:44:19.311Z,14.40
2023-06-30T03:46:49.304Z,14.40
2023-06-30T03:49:17.607Z,14.40
2023-06-30T03:51:44.810Z,14.30
2023-06-30T03:54:11.979Z,14.30
2023-06-30T03:56:39.337Z,14.30
2023-06-30T03:59:06.652Z,14.30
2023-06-30T04:01:35.531Z,14.30
2023-06-30T04:04:03.605Z,14.20
2023-06-30T04:06:32.282Z,14.20
2023-06-30T04:08:59.412Z,14.20
2023-06-30T04:11:26.934Z,14.10
2023-06-30T04:13:54.286Z,14.20
2023-06-30T04:16:27.823Z,14.20
2023-06-30T04:18:57.293Z,14.10
2023-06-30T04:21:25.291Z,14.10
2023-06-30T04:23:55.945Z,14.10
2023-06-30T04:26:23.091Z,14.20
2023-06-30T04:28:50.348Z,14.10
2023-06-30T04:31:20.907Z,14.10
2023-06-30T04:33:50.856Z,14.10
2023-06-30T04:36:21.874Z,14.10
2023-06-30T04:38:52.021Z,14.10
2023-06-30T04:41:19.867Z,14.00
2023-06-30T04:43:49.568Z,14.00
2023-06-30T04:46:19.323Z,14.00
2023-06-30T04:48:46.904Z,14.10
2023-06-30T04:51:14.940Z,14.10
2023-06-30T04:53:45.784Z,14.20
2023-06-30T04:56:13.649Z,14.20
2023-06-30T04:58:41.025Z,14.20
2023-06-30T05:01:08.198Z,14.20
2023-06-30T05:03:35.563Z,14.30
2023-06-30T05:06:03.265Z,14.30
2023-06-30T05:08:30.442Z,14.40
2023-06-30T05:10:57.916Z,14.40
2023-06-30T05:13:27.140Z,14.50
2023-06-30T05:15:54.661Z,14.50
2023-06-30T05:18:22.021Z,14.60
2023-06-30T05:20:49.196Z,14.60
2023-06-30T05:23:16.759Z,14.60
2023-06-30T05:25:44.989Z,14.50
2023-06-30T05:28:12.395Z,14.60
2023-06-30T05:30:40.826Z,14.60
2023-06-30T05:33:08.113Z,14.70
2023-06-30T05:35:35.273Z,14.70
2023-06-30T05:38:02.748Z,14.80
2023-06-30T05:40:30.002Z,14.80
2023-06-30T05:42:58.230Z,14.80
2023-06-30T05:45:26.645Z,14.80
2023-06-30T05:47:53.962Z,14.80
2023-06-30T05:50:30.402Z,14.80
2023-06-30T05:52:57.708Z,14.80
2023-06-30T05:55:24.957Z,14.80
2023-06-30T05:57:52.403Z,14.80
2023-06-30T06:00:21.275Z,14.80
2023-06-30T06:02:51.903Z,15.00
2023-06-30T06:05:19.819Z,15.10
2023-06-30T06:07:50.708Z,15.20
2023-06-30T06:10:21.895Z,15.40
2023-06-30T06:12:54.237Z,15.50
2023-06-30T06:15:22.404Z,15.70
2023-06-30T06:17:50.003Z,15.80
2023-06-30T06:20:20.481Z,16.00
2023-06-30T06:22:50.553Z,16.20
2023-06-30T06:25:20.625Z,16.30
2023-06-30T06:27:48.511Z,16.30
2023-06-30T06:30:22.682Z,16.40
2023-06-30T06:32:50.394Z,16.50
2023-06-30T06:35:20.355Z,16.50
2023-06-30T06:37:48.244Z,16.50
2023-06-30T06:40:19.108Z,16.60
2023-06-30T06:42:49.416Z,16.60
2023-06-30T06:45:19.740Z,16.60
2023-06-30T06:50:51.129Z,16.70
2023-06-30T06:53:20.543Z,16.80
2023-06-30T06:56:23.576Z,16.80
2023-06-30T06:58:54.741Z,16.90
2023-06-30T07:01:22.361Z,17.10
2023-06-30T07:03:49.882Z,17.20
2023-06-30T07:06:18.673Z,17.40
2023-06-30T07:08:52.175Z,17.60
2023-06-30T07:11:30.428Z,17.70
2023-06-30T07:14:15.017Z,17.90
2023-06-30T07:16:53.532Z,18.00
2023-06-30T07:19:31.358Z,18.20
2023-06-30T07:22:02.269Z,18.30
2023-06-30T07:58:25.695Z,18.50
2023-06-30T08:01:28.574Z,18.60
2023-06-30T08:04:38.031Z,18.70
2023-06-30T08:07:19.307Z,18.90
2023-06-30T08:09:54.749Z,19.00
2023-06-30T08:12:54.554Z,19.20
2023-06-30T08:15:52.161Z,19.50
2023-06-30T08:18:36.054Z,19.90
2023-06-30T08:23:54.349Z,20.50
2023-06-30T08:26:22.954Z,20.40
2023-06-30T08:28:54.097Z,20.40
2023-06-30T08:32:00.096Z,20.40
2023-06-30T08:34:51.373Z,20.40
2023-06-30T08:37:53.381Z,20.30
2023-06-30T08:43:53.429Z,20.30
2023-06-30T08:46:38.821Z,20.20
2023-06-30T08:49:15.271Z,20.20
2023-06-30T08:51:50.737Z,20.00
2023-06-30T08:55:24.305Z,20.00
2023-06-30T08:57:53.989Z,20.00
2023-06-30T09:00:22.221Z,20.30
2023-06-30T09:03:05.314Z,20.30
2023-06-30T09:05:38.314Z,20.50
2023-06-30T09:08:14.809Z,20.50
2023-06-30T09:11:31.967Z,20.30
2023-06-30T09:13:42.217Z,20.50
2023-06-30T09:16:20.786Z,20.40
2023-06-30T09:18:51.710Z,20.30
2023-06-30T09:21:27.478Z,20.20
2023-06-30T09:23:55.794Z,20.20
2023-06-30T09:26:23.528Z,20.30
2023-06-30T09:28:57.649Z,20.40
2023-06-30T09:31:51.983Z,20.60
2023-06-30T09:34:27.266Z,20.50
2023-06-30T09:37:05.339Z,20.40
2023-06-30T09:39:44.733Z,20.30
2023-06-30T09:42:30.415Z,20.40
2023-06-30T09:45:14.737Z,20.60
2023-06-30T09:47:59.689Z,21.00
2023-06-30T09:50:31.790Z,21.20
2023-06-30T09:53:02.957Z,21.50
2023-06-30T09:55:34.560Z,21.70
2023-06-30T09:58:10.130Z,21.90
2023-06-30T10:00:53.128Z,22.00
2023-06-30T10:03:23.957Z,21.60
2023-06-30T10:05:54.578Z,21.80
2023-06-30T10:08:25.128Z,22.20
2023-06-30T10:10:55.769Z,22.60
2023-06-30T10:13:30.100Z,22.90
2023-06-30T10:16:01.804Z,23.10
2023-06-30T10:18:29.746Z,22.90
2023-06-30T10:21:03.810Z,22.80
2023-06-30T10:23:37.738Z,22.20
2023-06-30T10:26:13.648Z,22.60
2023-06-30T10:28:41.142Z,22.80
2023-06-30T10:31:15.691Z,22.90
2023-06-30T10:37:16.560Z,22.90
2023-06-30T10:39:48.443Z,22.70
2023-06-30T10:42:28.060Z,22.80
2023-06-30T10:45:22.052Z,22.80
2023-06-30T10:47:55.428Z,22.70
2023-06-30T10:50:23.223Z,22.70
2023-06-30T10:53:00.657Z,23.00
2023-06-30T10:55:34.866Z,22.90
2023-06-30T10:58:11.005Z,23.00
2023-06-30T11:00:38.765Z,23.00
2023-06-30T11:03:17.463Z,23.00
2023-06-30T11:05:57.735Z,23.00
2023-06-30T11:08:41.813Z,22.90
2023-06-30T11:15:57.454Z,23.00
2023-06-30T11:18:25.788Z,23.00
2023-06-30T11:21:08.888Z,22.90
2023-06-30T11:23:57.671Z,22.90
2023-06-30T11:26:34.035Z,22.80
2023-06-30T11:29:38.250Z,22.40
2023-06-30T11:32:14.679Z,22.00
2023-06-30T11:34:49.225Z,21.60
2023-06-30T11:37:17.431Z,21.40
2023-06-30T11:39:57.276Z,21.50
2023-06-30T11:42:28.135Z,21.70
2023-06-30T11:44:55.555Z,22.10
2023-06-30T11:47:23.206Z,22.10
2023-06-30T11:49:51.710Z,22.00
2023-06-30T11:52:19.802Z,21.80
2023-06-30T11:54:53.372Z,21.60
2023-06-30T11:57:22.412Z,21.50
2023-06-30T11:59:50.360Z,21.20
2023-06-30T12:02:32.823Z,21.10
2023-06-30T12:05:01.046Z,21.10
2023-06-30T12:07:28.753Z,20.90
2023-06-30T12:10:10.457Z,20.80
2023-06-30T12:12:41.103Z,20.70
2023-06-30T12:15:39.370Z,20.60
2023-06-30T12:18:10.463Z,20.60
2023-06-30T12:20:41.989Z,20.50
2023-06-30T12:23:09.337Z,20.70
2023-06-30T12:25:44.586Z,20.90
2023-06-30T12:28:14.217Z,21.60
2023-06-30T12:30:41.684Z,22.10
2023-06-30T12:33:11.773Z,22.30
2023-06-30T12:37:05.244Z,22.00
2023-06-30T12:38:31.088Z,21.60
2023-06-30T12:40:58.816Z,21.50
2023-06-30T12:43:28.465Z,21.70
2023-06-30T12:45:55.841Z,21.60
2023-06-30T12:48:23.233Z,21.30
2023-06-30T12:50:51.658Z,20.80
2023-06-30T12:53:19.357Z,20.80
2023-06-30T12:56:01.057Z,20.50
2023-06-30T12:58:49.518Z,20.20
2023-06-30T13:01:35.549Z,20.00
2023-06-30T13:04:22.350Z,20.20
2023-06-30T13:07:32.913Z,20.20
2023-06-30T13:09:55.611Z,20.70
2023-06-30T13:12:58.621Z,21.50
2023-06-30T13:15:26.876Z,21.30
2023-06-30T13:17:54.464Z,20.90
2023-06-30T13:20:21.769Z,20.80
2023-06-30T13:23:03.160Z,20.80
2023-06-30T13:25:35.844Z,20.80
2023-06-30T13:28:03.120Z,20.90
2023-06-30T13:30:30.581Z,21.10
2023-06-30T13:32:58.036Z,21.30
2023-06-30T13:35:25.427Z,21.30
2023-06-30T13:37:52.735Z,21.20
2023-06-30T13:40:20.134Z,21.00
2023-06-30T13:42:54.867Z,21.00
2023-06-30T13:45:22.827Z,20.80
2023-06-30T13:47:53.564Z,20.80
2023-06-30T13:50:20.931Z,20.70
2023-06-30T13:52:53.897Z,20.80
2023-06-30T13:55:21.216Z,21.40
2023-06-30T13:57:56.497Z,21.70
2023-06-30T14:00:26.399Z,22.10
2023-06-30T14:15:51.653Z,21.60
2023-06-30T14:18:18.864Z,21.40
2023-06-30T14:20:50.217Z,21.10
2023-06-30T14:23:28.506Z,20.90
2023-06-30T14:26:31.148Z,20.70
2023-06-30T14:29:07.628Z,20.50
2023-06-30T14:32:20.744Z,20.30
2023-06-30T14:36:02.219Z,20.00
2023-06-30T14:42:16.187Z,19.80
2023-06-30T14:44:53.986Z,20.10
2023-06-30T14:47:33.169Z,20.10
2023-06-30T14:50:00.377Z,20.40
2023-06-30T14:52:27.806Z,20.40
2023-06-30T14:54:59.647Z,20.60
2023-06-30T14:57:33.285Z,20.70
2023-06-30T15:00:03.484Z,20.50
2023-06-30T15:02:36.388Z,20.40
2023-06-30T15:05:15.938Z,20.40
2023-06-30T15:08:09.010Z,20.40
2023-06-30T15:11:03.057Z,20.30
2023-06-30T15:17:33.117Z,20.50
2023-06-30T15:24:33.822Z,20.80
2023-06-30T15:27:26.287Z,20.90
2023-06-30T15:33:44.109Z,20.40
2023-06-30T15:36:36.803Z,20.10
2023-06-30T15:39:28.010Z,19.80
2023-06-30T15:45:21.099Z,19.70
2023-06-30T15:48:04.634Z,19.70
2023-06-30T15:50:38.739Z,19.70
2023-06-30T16:20:55.994Z,19.50
2023-06-30T16:23:34.922Z,19.30
2023-06-30T16:29:42.700Z,19.30
2023-06-30T16:30:02.419Z,19.30
2023-06-30T16:33:21.497Z,19.20
2023-06-30T16:36:17.165Z,19.20
2023-06-30T16:49:27.072Z,19.20
2023-06-30T16:53:25.563Z,19.30
2023-06-30T16:56:02.734Z,19.40
2023-06-30T16:58:39.190Z,19.50
2023-06-30T17:07:58.805Z,19.50
2023-06-30T17:10:35.957Z,19.60
2023-06-30T17:13:08.429Z,19.50
2023-06-30T17:18:59.086Z,19.30
2023-06-30T17:25:57.233Z,19.30
2023-06-30T17:28:52.012Z,19.30
2023-06-30T17:34:27.817Z,19.20
2023-06-30T17:51:56.225Z,19.00
2023-06-30T17:58:19.974Z,19.00
2023-06-30T18:01:20.483Z,18.90
2023-06-30T18:04:59.692Z,19.00
2023-06-30T18:10:24.366Z,19.00
2023-06-30T18:13:06.589Z,19.00
2023-06-30T18:15:42.519Z,18.90
2023-06-30T18:18:27.872Z,18.90
2023-06-30T18:21:02.369Z,18.90
2023-06-30T18:23:40.891Z,19.10
2023-06-30T18:27:08.400Z,19.00
2023-06-30T18:29:43.758Z,19.00
2023-06-30T18:32:11.383Z,19.00
2023-06-30T18:34:39.611Z,19.00
2023-06-30T18:37:36.740Z,18.90
2023-06-30T18:40:21.948Z,18.80
2023-06-30T18:43:24.682Z,18.80
2023-06-30T18:45:56.719Z,18.90
2023-06-30T18:48:45.497Z,18.90
2023-06-30T18:51:20.203Z,18.80
2023-06-30T18:56:38.191Z,18.80
2023-06-30T18:59:05.722Z,18.80
2023-06-30T19:01:33.241Z,18.80
2023-06-30T19:04:01.130Z,18.90
2023-06-30T19:07:18.830Z,18.90
2023-06-30T19:09:54.761Z,18.90
2023-06-30T19:12:22.647Z,18.90
2023-06-30T19:15:04.383Z,19.00
2023-06-30T19:17:45.794Z,18.90
2023-06-30T19:20:30.437Z,18.90
2023-06-30T19:22:59.148Z,18.90
2023-06-30T19:25:40.683Z,18.90
2023-06-30T19:28:15.946Z,18.90
2023-06-30T19:30:45.233Z,18.90
2023-06-30T19:33:23.965Z,18.90
2023-06-30T19:35:56.767Z,18.90
2023-06-30T19:38:30.903Z,18.90
2023-06-30T19:41:20.564Z,18.80
2023-06-30T19:46:39.686Z,18.70
2023-06-30T19:49:26.357Z,18.80
2023-06-30T19:52:02.807Z,18.80
2023-06-30T19:54:49.078Z,18.80
2023-06-30T19:57:18.814Z,18.70
2023-06-30T19:59:49.652Z,18.70
2023-06-30T20:02:21.709Z,18.80
2023-06-30T20:05:15.599Z,18.70
2023-06-30T20:07:43.481Z,18.70
2023-06-30T20:10:13.037Z,18.70
2023-06-30T20:16:01.648Z,18.80
2023-06-30T20:21:39.486Z,18.70
2023-06-30T20:24:08.468Z,18.80
2023-06-30T20:26:51.966Z,18.70
2023-06-30T20:29:41.801Z,18.70
2023-06-30T20:32:13.808Z,18.60
2023-06-30T20:38:19.709Z,18.70
2023-06-30T20:41:37.211Z,18.70
2023-06-30T20:44:17.163Z,18.60
2023-06-30T20:47:22.188Z,18.60
2023-06-30T20:49:52.618Z,18.60
2023-06-30T20:52:34.979Z,18.50
2023-06-30T20:55:25.379Z,18.50
2023-06-30T20:58:04.737Z,18.50
2023-06-30T21:00:42.615Z,18.50
2023-06-30T21:03:18.023Z,18.50
2023-06-30T21:05:52.833Z,18.50
2023-06-30T21:08:26.404Z,18.50
2023-06-30T21:11:02.990Z,18.50
2023-06-30T21:13:42.840Z,18.50
2023-06-30T21:16:22.717Z,18.50
2023-06-30T21:18:54.975Z,18.50
2023-06-30T21:22:42.866Z,18.50
2023-06-30T21:25:30.173Z,18.50
2023-06-30T21:28:12.180Z,18.40
2023-06-30T21:30:42.547Z,18.40
2023-06-30T21:33:56.460Z,18.40
2023-06-30T21:36:30.442Z,18.50
2023-06-30T21:39:11.465Z,18.40
2023-06-30T21:42:04.632Z,18.40
2023-06-30T21:44:38.257Z,18.50
2023-06-30T21:47:26.413Z,18.50
2023-06-30T21:49:57.853Z,18.50
2023-06-30T21:53:27.061Z,18.50
2023-06-30T21:56:09.136Z,18.40
2023-06-30T21:59:22.461Z,18.50
2023-06-30T22:02:09.156Z,18.50
2023-06-30T22:08:26.680Z,18.50
2023-06-30T22:11:00.368Z,18.50
2023-06-30T22:17:02.214Z,18.60
2023-06-30T22:20:01.250Z,18.60
2023-06-30T22:23:10.433Z,18.60
2023-06-30T22:25:54.261Z,18.60
2023-06-30T22:31:27.124Z,18.60
2023-06-30T22:37:04.918Z,18.60
2023-06-30T22:40:01.328Z,18.70
2023-06-30T22:42:33.667Z,18.70
2023-06-30T22:45:04.962Z,18.70
2023-06-30T22:47:33.898Z,18.60
2023-06-30T22:54:29.307Z,18.60
2023-06-30T22:57:08.556Z,18.60
2023-06-30T22:59:43.354Z,18.60
2023-06-30T23:06:21.071Z,18.70
2023-06-30T23:08:51.397Z,18.70
2023-06-30T23:11:37.498Z,18.70
2023-06-30T23:14:32.200Z,18.70
2023-06-30T23:20:59.156Z,18.60
2023-06-30T23:23:29.197Z,18.60
2023-06-30T23:29:19.088Z,18.60
2023-06-30T23:32:17.228Z,18.60
2023-06-30T23:37:26.185Z,18.60
2023-06-30T23:40:13.131Z,18.60
2023-06-30T23:43:04.205Z,18.60
2023-06-30T23:45:36.784Z,18.60
2023-06-30T23:48:07.588Z,18.60
2023-06-30T23:50:37.736Z,18.60
2023-06-30T23:53:06.287Z,18.60
2023-06-30T23:55:40.222Z,18.60
2023-06-30T23:58:22.936Z,18.70
